Time;durP1;ratioP1;P1;durP2;ratioP2;P2;SDS_P1;SDS_P2;PMS_P1;PMS_P2;Temp;Humidity;BMP_temperature;BMP_pressure;BME280_temperature;BME280_humidity;BME280_pressure;Samples;Min_cycle;Max_cycle;Signal;HPM_P1;HPM_P2
2022/07/11 00:02:13;;;;;;;5.30;2.20;;;;;;;13.48;90.72;99085.97;105199;1271;61397;-74
2022/07/11 00:04:42;;;;;;;5.90;2.90;;;;;;;13.49;91.32;99084.61;105182;1268;75713;-73
2022/07/11 00:07:08;;;;;;;3.30;2.10;;;;;;;13.49;91.40;99084.36;105245;1270;69339;-73
2022/07/11 00:09:35;;;;;;;4.40;2.20;;;;;;;13.48;91.56;99080.29;105175;1271;61380;-73
2022/07/11 00:12:02;;;;;;;3.10;2.10;;;;;;;13.48;91.64;99082.81;105068;1271;61297;-73
2022/07/11 00:14:28;;;;;;;4.60;2.20;;;;;;;13.46;91.80;99081.65;105108;1271;61237;-74
2022/07/11 00:16:55;;;;;;;5.70;2.30;;;;;;;13.46;92.02;99081.15;105186;1268;61497;-74
2022/07/11 00:19:22;;;;;;;4.30;2.30;;;;;;;13.45;92.41;99084.63;104865;1271;61432;-74
2022/07/11 00:21:50;;;;;;;4.00;2.30;;;;;;;13.45;92.64;99076.91;105334;1271;74318;-73
2022/07/11 00:24:21;;;;;;;6.00;2.70;;;;;;;13.45;92.99;99074.04;105344;1271;61280;-73
2022/07/11 00:26:49;;;;;;;5.90;3.00;;;;;;;13.44;92.99;99074.67;105250;1271;61849;-73
2022/07/11 00:29:15;;;;;;;4.60;2.60;;;;;;;13.42;93.07;99074.64;105202;1271;76387;-73
2022/07/11 00:31:42;;;;;;;4.70;2.30;;;;;;;13.42;93.22;99076.82;105166;1271;69442;-74
2022/07/11 00:34:08;;;;;;;5.30;3.00;;;;;;;13.41;93.48;99076.20;105142;1271;74134;-74
2022/07/11 00:36:35;;;;;;;5.40;2.80;;;;;;;13.40;93.75;99081.08;105179;1271;61253;-74
2022/07/11 00:39:01;;;;;;;7.60;3.20;;;;;;;13.37;94.32;99083.82;105185;1271;61443;-75
2022/07/11 00:41:27;;;;;;;6.30;3.30;;;;;;;13.34;94.08;99087.23;105161;1271;61367;-76
2022/07/11 00:43:56;;;;;;;4.40;3.00;;;;;;;13.33;94.59;99091.58;105178;1271;61275;-73
2022/07/11 00:46:23;;;;;;;5.80;3.20;;;;;;;13.31;94.98;99092.27;105212;1271;73476;-73
2022/07/11 00:48:50;;;;;;;5.60;3.20;;;;;;;13.30;94.84;99090.40;105151;1271;61270;-73
2022/07/11 00:51:20;;;;;;;5.50;3.90;;;;;;;13.29;95.00;99094.39;105198;1271;61182;-72
2022/07/11 00:53:51;;;;;;;7.00;3.50;;;;;;;13.28;95.23;99095.34;105177;1271;76413;-74
2022/07/11 00:56:23;;;;;;;7.30;3.60;;;;;;;13.28;95.33;99096.64;105148;1271;70144;-73
2022/07/11 00:58:50;;;;;;;6.60;3.80;;;;;;;13.27;95.75;99095.28;105233;1271;74213;-72
2022/07/11 01:01:17;;;;;;;6.90;3.70;;;;;;;13.26;95.95;99093.54;105262;1271;61628;-73
2022/07/11 01:03:44;;;;;;;6.50;3.60;;;;;;;13.25;95.91;99096.64;105187;1271;61285;-75
2022/07/11 01:06:10;;;;;;;6.10;4.30;;;;;;;13.25;96.40;99096.67;105175;1271;61298;-74
2022/07/11 01:08:38;;;;;;;5.60;3.40;;;;;;;13.24;96.49;99092.48;105187;1271;61393;-73
2022/07/11 01:11:12;;;;;;;5.90;3.20;;;;;;;13.22;96.79;99092.40;105221;1271;72986;-73
2022/07/11 01:13:40;;;;;;;5.10;3.00;;;;;;;13.22;97.01;99096.73;105182;1271;61482;-73
2022/07/11 01:16:35;;;;;;;5.20;2.70;;;;;;;13.20;97.56;99096.66;105253;1271;61551;-73
2022/07/11 01:19:01;;;;;;;4.90;2.50;;;;;;;13.19;97.77;99094.08;104397;1279;75452;-74
2022/07/11 01:21:38;;;;;;;4.60;2.80;;;;;;;13.18;98.14;99091.13;104445;1279;61320;-73
2022/07/11 01:24:05;;;;;;;4.10;3.20;;;;;;;13.17;98.47;99087.42;104039;1281;73311;-73
2022/07/11 01:26:34;;;;;;;5.30;2.90;;;;;;;13.16;98.70;99093.77;104484;1279;61436;-73
2022/07/11 01:29:13;;;;;;;7.80;2.90;;;;;;;13.15;99.06;99088.66;104323;1279;61369;-73
2022/07/11 01:31:43;;;;;;;5.70;2.40;;;;;;;13.15;99.13;99090.44;104425;1279;75362;-73
2022/07/11 01:34:10;;;;;;;5.10;3.20;;;;;;;13.15;99.42;99087.23;104401;1279;70768;-73
2022/07/11 01:36:37;;;;;;;5.30;2.90;;;;;;;13.15;99.85;99086.15;104431;1279;73497;-73
2022/07/11 01:39:04;;;;;;;3.90;2.70;;;;;;;13.15;99.96;99084.75;104382;1279;61400;-73
2022/07/11 01:41:29;;;;;;;4.10;3.10;;;;;;;13.14;100.00;99086.57;104461;1279;61471;-73
2022/07/11 01:43:56;;;;;;;3.40;2.20;;;;;;;13.14;100.00;99084.29;104434;1279;61337;-74
2022/07/11 01:46:22;;;;;;;4.00;2.50;;;;;;;13.14;100.00;99083.92;104408;1279;61328;-73
2022/07/11 01:48:48;;;;;;;4.30;2.30;;;;;;;13.13;100.00;99080.80;104479;1280;61537;-73
2022/07/11 01:51:14;;;;;;;4.80;2.50;;;;;;;13.12;100.00;99079.99;104469;1280;61316;-73
2022/07/11 01:53:40;;;;;;;4.80;2.20;;;;;;;13.11;100.00;99078.06;104505;1280;62353;-73
2022/07/11 01:56:06;;;;;;;4.40;2.00;;;;;;;13.11;100.00;99079.13;104624;1271;61251;-73
2022/07/11 01:58:32;;;;;;;3.90;2.80;;;;;;;13.12;100.00;99081.96;105126;1271;61387;-74
2022/07/11 02:00:59;;;;;;;7.60;2.80;;;;;;;13.10;100.00;99079.91;105043;1271;61409;-73
2022/07/11 02:03:25;;;;;;;4.70;2.50;;;;;;;13.09;100.00;99077.92;105097;1271;61848;-73
2022/07/11 02:05:51;;;;;;;6.50;4.10;;;;;;;13.09;100.00;99079.48;105159;1271;61323;-72
2022/07/11 02:08:17;;;;;;;9.80;5.40;;;;;;;13.09;100.00;99078.96;105182;1271;61279;-73
2022/07/11 02:10:51;;;;;;;9.00;4.70;;;;;;;13.08;100.00;99077.61;105152;1271;61243;-73
2022/07/11 02:13:20;;;;;;;8.60;5.10;;;;;;;13.08;100.00;99076.71;105267;1271;61272;-73
2022/07/11 02:15:49;;;;;;;8.40;5.50;;;;;;;13.08;100.00;99077.98;105282;1271;61248;-73
2022/07/11 02:18:15;;;;;;;7.00;4.20;;;;;;;13.08;100.00;99075.25;105268;1271;76273;-73
2022/07/11 02:20:42;;;;;;;5.50;4.00;;;;;;;13.07;100.00;99073.41;105206;1271;61337;-72
2022/07/11 02:23:09;;;;;;;9.10;4.30;;;;;;;13.07;100.00;99074.50;104962;1271;74275;-73
2022/07/11 02:25:38;;;;;;;6.70;3.90;;;;;;;13.04;100.00;99068.06;105159;1268;61275;-73
2022/07/11 02:28:08;;;;;;;7.60;3.80;;;;;;;13.01;100.00;99068.16;105192;1271;61286;-72
2022/07/11 02:30:39;;;;;;;4.40;3.20;;;;;;;12.97;100.00;99067.56;105206;1270;76527;-72
2022/07/11 02:33:07;;;;;;;4.30;3.50;;;;;;;12.92;100.00;99068.30;104992;1271;69212;-72
2022/07/11 02:35:35;;;;;;;7.50;3.20;;;;;;;12.88;100.00;99069.29;105212;1271;74265;-72
2022/07/11 02:38:02;;;;;;;7.00;3.20;;;;;;;12.84;100.00;99071.17;105008;1271;61340;-73
2022/07/11 02:40:28;;;;;;;5.20;2.90;;;;;;;12.82;100.00;99071.33;105278;1271;61301;-73
2022/07/11 02:42:54;;;;;;;6.30;2.90;;;;;;;12.79;100.00;99075.70;105193;1271;61291;-73
2022/07/11 02:45:20;;;;;;;5.00;2.90;;;;;;;12.75;100.00;99077.02;105182;1271;61384;-73
2022/07/11 02:47:47;;;;;;;5.00;3.00;;;;;;;12.72;100.00;99077.25;105176;1271;61354;-73
2022/07/11 02:50:14;;;;;;;2.60;2.40;;;;;;;12.72;100.00;99071.94;105203;1271;61380;-73
2022/07/11 02:52:41;;;;;;;4.40;2.50;;;;;;;12.75;100.00;99073.69;105211;1269;61385;-73
2022/07/11 02:55:09;;;;;;;4.70;2.80;;;;;;;12.75;100.00;99079.38;105180;1271;75210;-73
2022/07/11 02:57:36;;;;;;;3.80;2.50;;;;;;;12.73;100.00;99083.23;105015;1271;70162;-74
2022/07/11 03:00:26;;;;;;;4.70;2.30;;;;;;;12.72;100.00;99087.64;105190;1271;72323;-72
2022/07/11 03:02:52;;;;;;;;;;;;;;;12.69;100.00;99090.48;104875;1274;61407;-74
2022/07/11 03:05:19;;;;;;;7.00;2.90;;;;;;;12.68;100.00;99092.72;104892;1274;61650;-75
2022/07/11 03:07:45;;;;;;;5.80;2.60;;;;;;;12.68;100.00;99093.47;104805;1274;61461;-73
2022/07/11 03:10:11;;;;;;;6.50;2.90;;;;;;;12.67;100.00;99093.86;104900;1274;61292;-74
2022/07/11 03:12:37;;;;;;;4.50;2.40;;;;;;;12.67;100.00;99092.80;104907;1274;61543;-72
2022/07/11 03:15:05;;;;;;;5.10;2.60;;;;;;;12.67;100.00;99093.88;104898;1274;61388;-73
2022/07/11 03:17:31;;;;;;;7.00;3.10;;;;;;;12.66;100.00;99096.77;104681;1274;61358;-72
2022/07/11 03:19:57;;;;;;;5.80;2.80;;;;;;;12.66;100.00;99094.65;104915;1274;61244;-72
2022/07/11 03:22:23;;;;;;;3.60;2.60;;;;;;;12.67;100.00;99095.63;104892;1273;61263;-72
2022/07/11 03:24:50;;;;;;;6.70;3.60;;;;;;;12.67;100.00;99095.46;104891;1274;61432;-73
2022/07/11 03:27:16;;;;;;;5.80;3.00;;;;;;;12.67;100.00;99095.08;104859;1274;61468;-73
2022/07/11 03:29:42;;;;;;;4.70;3.00;;;;;;;12.68;100.00;99096.27;104941;1274;61541;-73
2022/07/11 03:32:09;;;;;;;5.10;3.30;;;;;;;12.69;100.00;99098.34;104876;1274;61344;-73
2022/07/11 03:34:36;;;;;;;4.90;3.30;;;;;;;12.70;100.00;99096.32;104905;1274;61444;-73
2022/07/11 03:37:02;;;;;;;8.20;3.20;;;;;;;12.71;100.00;99097.68;104965;1274;61608;-73
2022/07/11 03:39:28;;;;;;;4.60;3.10;;;;;;;12.72;100.00;99098.52;104896;1274;61329;-73
2022/07/11 03:41:54;;;;;;;6.40;3.20;;;;;;;12.72;100.00;99095.45;105183;1271;61255;-73
2022/07/11 03:44:20;;;;;;;6.50;3.10;;;;;;;12.73;100.00;99096.23;105161;1271;61378;-73
2022/07/11 03:46:46;;;;;;;5.10;3.30;;;;;;;12.75;100.00;99097.01;105153;1271;61520;-74
2022/07/11 03:49:12;;;;;;;4.60;3.10;;;;;;;12.78;100.00;99096.66;104874;1272;61469;-75
2022/07/11 03:55:22;;;;;;;8.10;3.10;;;;;;;12.83;100.00;99094.30;105192;1271;74408;-74
2022/07/11 03:57:48;;;;;;;8.80;3.30;;;;;;;12.84;100.00;99095.42;105244;1271;61358;-73
2022/07/11 04:00:15;;;;;;;5.20;3.30;;;;;;;12.88;100.00;99094.61;105190;1271;61332;-74
2022/07/11 04:02:40;;;;;;;5.10;3.20;;;;;;;12.90;100.00;99095.02;105196;1270;61394;-73
2022/07/11 04:05:07;;;;;;;7.40;3.20;;;;;;;12.93;100.00;99097.65;104975;1271;61334;-74
2022/07/11 04:07:34;;;;;;;6.40;3.40;;;;;;;12.97;100.00;99097.13;105207;1271;61298;-76
2022/07/11 04:09:59;;;;;;;5.00;3.40;;;;;;;13.00;100.00;99100.11;105171;1269;61755;-75
2022/07/11 04:12:25;;;;;;;7.00;3.60;;;;;;;13.04;100.00;99099.83;104969;1271;61378;-73
2022/07/11 04:14:52;;;;;;;4.40;3.10;;;;;;;13.07;100.00;99098.91;105203;1271;61381;-74
2022/07/11 04:17:18;;;;;;;6.20;4.30;;;;;;;13.11;100.00;99098.41;105182;1270;61376;-74
2022/07/11 04:19:45;;;;;;;6.90;3.40;;;;;;;13.17;100.00;99099.19;105194;1270;61347;-74
2022/07/11 04:22:12;;;;;;;5.80;3.20;;;;;;;13.23;100.00;99094.33;105256;1271;61373;-72
2022/07/11 04:24:38;;;;;;;4.70;2.90;;;;;;;13.30;100.00;99093.65;105161;1271;61387;-72
2022/07/11 04:27:04;;;;;;;6.90;2.90;;;;;;;13.37;100.00;99096.47;105209;1271;61291;-74
2022/07/11 04:29:31;;;;;;;5.30;3.00;;;;;;;13.44;100.00;99095.80;105164;1271;61506;-73
2022/07/11 04:31:56;;;;;;;2.90;2.30;;;;;;;13.51;100.00;99092.00;105605;1271;61374;-73
2022/07/11 04:34:23;;;;;;;6.70;3.10;;;;;;;13.56;100.00;99091.05;105713;1271;61249;-73
2022/07/11 04:36:49;;;;;;;7.20;2.80;;;;;;;13.61;100.00;99085.99;104933;1271;61339;-73
2022/07/11 04:39:15;;;;;;;3.90;2.70;;;;;;;13.68;100.00;99091.77;105221;1271;61349;-74
2022/07/11 04:41:41;;;;;;;4.40;2.40;;;;;;;13.75;100.00;99091.89;105236;1271;61300;-73
2022/07/11 04:44:07;;;;;;;5.00;2.50;;;;;;;13.82;100.00;99094.77;105215;1271;61258;-73
2022/07/11 04:46:33;;;;;;;6.10;2.30;;;;;;;13.89;100.00;99093.33;105206;1270;61351;-73
2022/07/11 04:49:00;;;;;;;7.50;2.40;;;;;;;13.95;100.00;99094.64;104890;1271;61378;-72
2022/07/11 04:51:26;;;;;;;3.50;2.30;;;;;;;14.00;100.00;99095.63;105205;1271;61292;-74
2022/07/11 04:53:52;;;;;;;6.50;2.90;;;;;;;14.06;100.00;99099.64;104865;1272;61412;-73
2022/07/11 04:56:18;;;;;;;5.50;2.80;;;;;;;14.13;100.00;99094.30;105201;1271;61379;-74
2022/07/11 04:58:44;;;;;;;7.50;3.20;;;;;;;14.18;100.00;99097.64;105199;1271;61279;-72
2022/07/11 05:01:10;;;;;;;5.90;2.70;;;;;;;14.23;100.00;99099.20;105263;1271;61473;-74
2022/07/11 05:03:36;;;;;;;6.10;2.60;;;;;;;14.30;100.00;99099.55;105240;1271;75154;-73
2022/07/11 05:06:03;;;;;;;7.20;3.20;;;;;;;14.35;100.00;99102.84;105195;1271;61339;-73
2022/07/11 05:08:29;;;;;;;6.60;2.30;;;;;;;14.41;100.00;99102.70;105213;1271;61282;-73
2022/07/11 05:10:56;;;;;;;6.10;2.80;;;;;;;14.47;100.00;99103.28;105201;1271;61376;-74
2022/07/11 05:13:22;;;;;;;4.20;2.30;;;;;;;14.53;100.00;99106.65;105289;1271;61406;-74
2022/07/11 05:15:48;;;;;;;4.40;2.20;;;;;;;14.58;100.00;99104.09;105175;1271;61439;-73
2022/07/11 05:18:14;;;;;;;5.60;2.40;;;;;;;14.67;100.00;99102.64;105259;1271;61336;-73
2022/07/11 05:20:40;;;;;;;6.00;2.40;;;;;;;14.77;100.00;99101.05;105186;1271;62802;-74
2022/07/11 05:23:06;;;;;;;7.60;2.50;;;;;;;14.90;100.00;99100.56;105160;1270;61272;-74
2022/07/11 05:25:32;;;;;;;5.30;2.50;;;;;;;14.99;100.00;99097.28;105272;1271;61742;-73
2022/07/11 05:27:58;;;;;;;4.90;2.40;;;;;;;15.02;100.00;99104.39;105229;1271;61289;-73
2022/07/11 05:30:25;;;;;;;4.90;2.10;;;;;;;15.08;100.00;99104.41;105245;1271;61505;-73
2022/07/11 05:32:51;;;;;;;5.10;1.90;;;;;;;15.05;100.00;99105.55;105202;1271;61279;-74
2022/07/11 05:35:17;;;;;;;8.60;2.60;;;;;;;15.04;100.00;99105.83;105194;1271;61884;-73
2022/07/11 05:37:43;;;;;;;9.40;2.60;;;;;;;15.08;100.00;99105.79;105188;1271;61316;-73
2022/07/11 05:40:10;;;;;;;7.40;2.80;;;;;;;15.14;100.00;99108.70;105194;1271;61320;-73
2022/07/11 05:42:36;;;;;;;7.90;2.80;;;;;;;15.26;100.00;99115.47;105201;1271;61279;-73
2022/07/11 05:45:02;;;;;;;6.80;2.30;;;;;;;15.39;100.00;99115.57;105176;1271;61376;-73
2022/07/11 05:47:30;;;;;;;7.50;2.80;;;;;;;15.52;100.00;99114.11;105202;1271;61371;-74
2022/07/11 05:49:56;;;;;;;6.00;2.30;;;;;;;15.66;100.00;99112.75;105184;1271;61268;-74
2022/07/11 05:52:21;;;;;;;5.20;1.80;;;;;;;15.82;100.00;99112.14;105212;1271;61384;-74
2022/07/11 05:54:48;;;;;;;10.00;2.40;;;;;;;15.98;100.00;99116.10;105189;1270;61372;-74
2022/07/11 05:57:14;;;;;;;5.00;2.40;;;;;;;16.17;100.00;99116.39;105171;1271;61381;-74
2022/07/11 05:59:39;;;;;;;5.60;2.70;;;;;;;16.35;100.00;99108.88;105233;1271;61379;-74
2022/07/11 06:02:07;;;;;;;4.80;2.80;;;;;;;16.60;100.00;99112.59;105148;1271;61361;-73
2022/07/11 06:04:33;;;;;;;8.40;2.70;;;;;;;16.83;99.96;99113.16;105231;1271;73426;-73
2022/07/11 06:07:00;;;;;;;6.50;2.10;;;;;;;17.01;98.66;99116.63;104930;1271;61383;-74
2022/07/11 06:09:26;;;;;;;7.30;2.60;;;;;;;17.36;95.85;99112.30;105286;1271;61330;-74
2022/07/11 06:11:52;;;;;;;4.20;2.10;;;;;;;18.03;90.82;99115.63;105226;1271;61381;-73
2022/07/11 06:14:18;;;;;;;5.30;2.50;;;;;;;18.27;90.29;99111.88;105277;1270;61289;-75
2022/07/11 06:16:45;;;;;;;7.10;2.60;;;;;;;19.00;88.90;99110.48;105126;1271;61449;-74
2022/07/11 06:19:11;;;;;;;4.10;2.40;;;;;;;19.91;85.04;99110.48;105215;1271;61358;-74
2022/07/11 06:21:37;;;;;;;4.30;1.80;;;;;;;20.53;82.54;99107.95;105208;1271;61367;-75
2022/07/11 06:24:04;;;;;;;5.30;2.20;;;;;;;20.51;76.05;99110.81;105256;1271;61291;-73
2022/07/11 06:26:30;;;;;;;5.60;2.50;;;;;;;20.21;78.32;99109.89;104973;1271;61378;-75
2022/07/11 06:28:57;;;;;;;5.40;2.50;;;;;;;19.92;78.32;99109.41;105206;1271;61303;-74
2022/07/11 06:31:23;;;;;;;5.00;2.50;;;;;;;19.60;77.94;99110.58;105212;1271;61325;-75
2022/07/11 06:33:54;;;;;;;4.60;2.20;;;;;;;19.47;79.08;99109.00;105230;1271;61286;-74
2022/07/11 06:36:22;;;;;;;6.10;2.00;;;;;;;19.56;77.03;99108.13;104875;1271;76272;-75
2022/07/11 06:38:50;;;;;;;4.70;2.10;;;;;;;19.43;77.16;99105.96;105225;1271;69206;-75
2022/07/11 06:41:16;;;;;;;4.90;2.10;;;;;;;19.87;76.16;99103.11;105096;1271;74279;-76
2022/07/11 06:43:42;;;;;;;4.20;2.20;;;;;;;20.39;73.84;99098.63;105196;1271;61563;-74
2022/07/11 06:46:08;;;;;;;4.80;1.70;;;;;;;20.91;72.13;99097.88;105170;1271;61341;-75
2022/07/11 06:48:34;;;;;;;6.50;1.80;;;;;;;21.35;71.17;99095.85;105230;1271;61269;-75
2022/07/11 06:51:00;;;;;;;8.90;2.10;;;;;;;21.97;69.22;99100.09;105172;1271;61448;-75
2022/07/11 06:53:26;;;;;;;3.60;1.60;;;;;;;22.08;67.93;99094.95;105239;1270;61322;-74
2022/07/11 06:55:52;;;;;;;2.60;1.50;;;;;;;22.32;67.55;99092.92;105201;1271;61301;-75
2022/07/11 06:58:33;;;;;;;6.40;1.70;;;;;;;22.54;65.92;99091.07;105243;1271;61326;-75
2022/07/11 07:01:05;;;;;;;3.20;1.70;;;;;;;22.38;62.20;99096.90;105235;1271;76651;-75
2022/07/11 07:03:33;;;;;;;2.80;1.30;;;;;;;21.87;64.95;99099.94;105281;1271;68670;-74
2022/07/11 07:06:00;;;;;;;3.90;1.80;;;;;;;21.56;63.03;99108.30;105335;1271;73482;-74
2022/07/11 07:08:27;;;;;;;3.80;1.20;;;;;;;21.12;63.81;99112.14;105254;1271;61167;-74
2022/07/11 07:10:54;;;;;;;2.90;1.20;;;;;;;20.90;63.93;99112.61;105070;1272;61388;-75
2022/07/11 07:13:23;;;;;;;3.10;1.30;;;;;;;20.78;61.39;99116.48;104927;1271;76599;-76
2022/07/11 07:15:50;;;;;;;4.40;1.80;;;;;;;20.64;59.91;99118.73;105195;1271;69243;-75
2022/07/11 07:18:16;;;;;;;5.80;1.60;;;;;;;20.39;61.33;99120.27;105212;1271;61381;-75
2022/07/11 07:20:42;;;;;;;7.20;1.40;;;;;;;20.21;61.79;99112.05;105201;1271;61266;-74
2022/07/11 07:23:08;;;;;;;3.70;1.70;;;;;;;20.40;62.89;99108.73;105238;1271;61263;-74
2022/07/11 07:25:35;;;;;;;6.50;1.70;;;;;;;20.72;63.55;99104.86;105227;1271;61378;-74
2022/07/11 07:28:01;;;;;;;4.70;1.20;;;;;;;21.00;61.80;99102.02;105173;1271;61464;-73
2022/07/11 07:30:27;;;;;;;4.90;1.50;;;;;;;21.22;61.76;99100.99;105193;1271;61792;-75
2022/07/11 07:32:53;;;;;;;4.60;1.70;;;;;;;21.03;61.32;99101.90;105196;1271;61278;-74
2022/07/11 07:35:20;;;;;;;4.00;1.60;;;;;;;20.63;60.34;99103.79;105239;1271;61304;-76
2022/07/11 07:37:46;;;;;;;5.10;1.50;;;;;;;20.75;63.38;99096.38;105165;1271;61282;-75
2022/07/11 07:40:12;;;;;;;4.60;1.30;;;;;;;21.24;62.76;99098.13;105200;1271;61349;-75
2022/07/11 07:42:39;;;;;;;4.10;1.60;;;;;;;21.60;61.40;99099.41;105205;1271;61368;-75
2022/07/11 07:45:07;;;;;;;5.30;1.50;;;;;;;21.49;59.65;99097.84;105210;1271;61390;-75
2022/07/11 07:47:34;;;;;;;6.50;2.20;;;;;;;21.30;59.30;99095.14;105240;1271;61139;-74
2022/07/11 07:50:00;;;;;;;3.70;1.30;;;;;;;21.02;58.17;99094.02;105208;1271;76198;-75
2022/07/11 07:52:26;;;;;;;4.10;1.80;;;;;;;20.59;57.84;99092.70;105181;1271;61288;-75
2022/07/11 07:54:53;;;;;;;3.30;1.70;;;;;;;20.39;60.21;99093.70;105213;1271;61264;-75
2022/07/11 07:57:18;;;;;;;3.40;1.90;;;;;;;20.81;61.87;99091.41;105155;1271;61291;-74
2022/07/11 07:59:45;;;;;;;3.10;1.20;;;;;;;21.29;60.60;99088.12;105225;1270;61378;-74
2022/07/11 08:02:11;;;;;;;3.70;1.00;;;;;;;21.28;58.71;99088.48;105199;1271;61289;-75
2022/07/11 08:04:37;;;;;;;3.90;1.10;;;;;;;20.79;56.21;99082.16;105217;1271;61393;-75
2022/07/11 08:07:03;;;;;;;3.80;1.20;;;;;;;20.25;57.54;99074.63;105201;1271;61799;-75
2022/07/11 08:09:30;;;;;;;3.80;1.20;;;;;;;19.87;58.64;99075.73;105213;1271;61384;-75
2022/07/11 08:11:56;;;;;;;5.00;1.20;;;;;;;19.49;59.16;99080.52;105259;1271;61325;-74
2022/07/11 08:14:23;;;;;;;3.40;1.00;;;;;;;19.04;59.44;99081.84;105220;1271;61371;-74
2022/07/11 08:16:50;;;;;;;2.70;1.50;;;;;;;18.63;60.15;99085.52;105041;1271;73439;-74
2022/07/11 08:19:16;;;;;;;3.80;1.40;;;;;;;18.37;60.99;99089.20;105202;1271;61395;-74
2022/07/11 08:21:42;;;;;;;7.20;2.40;;;;;;;18.21;61.91;99092.16;105199;1270;61373;-74
2022/07/11 08:24:08;;;;;;;9.50;2.60;;;;;;;18.09;62.44;99092.64;105056;1274;61170;-74
2022/07/11 08:26:34;;;;;;;4.50;1.60;;;;;;;18.03;63.56;99088.04;105185;1271;61266;-74
2022/07/11 08:29:02;;;;;;;7.40;1.70;;;;;;;18.08;62.63;99086.33;105215;1271;61307;-74
2022/07/11 08:31:28;;;;;;;5.80;1.60;;;;;;;18.20;62.87;99085.47;105211;1271;61334;-75
2022/07/11 08:33:57;;;;;;;3.60;1.00;;;;;;;18.40;63.04;99082.05;105226;1271;61285;-75
2022/07/11 08:36:23;;;;;;;4.60;1.50;;;;;;;18.73;62.69;99074.46;105174;1271;75371;-74
2022/07/11 08:38:49;;;;;;;2.50;1.00;;;;;;;19.23;62.48;99071.16;105239;1271;61795;-75
2022/07/11 08:41:18;;;;;;;4.40;1.20;;;;;;;19.79;61.57;99071.12;105208;1271;61302;-74
2022/07/11 08:43:46;;;;;;;2.60;0.80;;;;;;;20.26;61.06;99065.79;104977;1271;61328;-73
2022/07/11 08:46:14;;;;;;;4.80;1.20;;;;;;;20.51;57.90;99064.34;105335;1271;61391;-75
2022/07/11 08:48:41;;;;;;;3.30;1.60;;;;;;;20.62;58.80;99062.36;105362;1270;75786;-74
2022/07/11 08:51:08;;;;;;;4.50;1.70;;;;;;;20.85;58.16;99062.30;105210;1271;69335;-78
2022/07/11 08:53:40;;;;;;;4.50;1.70;;;;;;;21.07;57.02;99059.34;105257;1271;74280;-75
2022/07/11 08:56:15;;;;;;;5.10;1.70;;;;;;;21.20;54.48;99053.67;105276;1271;61198;-75
2022/07/11 08:58:44;;;;;;;2.60;1.10;;;;;;;21.49;54.89;99051.92;105281;1269;61233;-74
2022/07/11 09:01:12;;;;;;;3.00;1.00;;;;;;;21.77;55.22;99047.70;105241;1271;76282;-74
2022/07/11 09:03:39;;;;;;;4.40;1.30;;;;;;;21.64;53.82;99045.60;105271;1271;70324;-74
2022/07/11 09:06:05;;;;;;;3.30;1.20;;;;;;;21.26;53.94;99051.84;105296;1271;73953;-74
2022/07/11 09:08:32;;;;;;;2.50;1.30;;;;;;;20.91;54.42;99056.14;105190;1271;61332;-75
2022/07/11 09:10:59;;;;;;;4.40;0.90;;;;;;;20.71;55.18;99057.88;105229;1271;61263;-74
2022/07/11 09:13:31;;;;;;;4.20;0.80;;;;;;;20.81;53.24;99051.67;105266;1271;61314;-75
2022/07/11 09:16:03;;;;;;;2.00;0.60;;;;;;;20.59;53.22;99053.35;105013;1274;70180;-74
2022/07/11 09:18:37;;;;;;;4.60;1.10;;;;;;;20.58;53.07;99053.08;105307;1271;73221;-74
2022/07/11 09:26:48;;;;;;;3.60;0.90;;;;;;;20.66;53.12;99043.14;105357;1271;75448;-75
2022/07/11 09:29:17;;;;;;;3.30;0.70;;;;;;;20.90;51.16;99048.02;105888;1271;69811;-74
2022/07/11 09:31:44;;;;;;;2.30;0.90;;;;;;;20.78;48.19;99045.29;105863;1273;73352;-74
2022/07/11 09:34:16;;;;;;;2.70;1.00;;;;;;;20.69;48.17;99049.21;105382;1271;61291;-74
2022/07/11 09:36:51;;;;;;;5.00;0.90;;;;;;;20.50;48.50;99040.38;105217;1271;61580;-75
2022/07/11 09:39:19;;;;;;;3.80;0.60;;;;;;;20.60;49.48;99041.81;105195;1271;75207;-75
2022/07/11 09:41:47;;;;;;;4.30;0.80;;;;;;;20.74;49.67;99036.11;105229;1271;69438;-75
2022/07/11 09:44:16;;;;;;;1.80;0.60;;;;;;;20.91;49.43;99034.92;105002;1271;281967;-74
2022/07/11 09:46:47;;;;;;;;;;;;;;;20.84;46.78;99030.74;105294;1271;61385;-75
2022/07/11 09:49:14;;;;;;;1.60;0.50;;;;;;;20.70;48.28;99027.98;105239;1271;61303;-74
2022/07/11 09:51:41;;;;;;;2.10;0.80;;;;;;;20.70;48.05;99027.98;105201;1271;74262;-75
2022/07/11 09:54:09;;;;;;;2.20;0.80;;;;;;;20.61;47.99;99024.77;105204;1270;68992;-74
2022/07/11 09:56:43;;;;;;;3.50;1.10;;;;;;;20.70;49.11;99017.19;105193;1271;74425;-75
2022/07/11 09:59:12;;;;;;;2.00;0.70;;;;;;;20.90;49.80;99016.48;105207;1271;61290;-74
2022/07/11 10:01:39;;;;;;;2.50;1.10;;;;;;;21.04;49.23;99018.23;105307;1271;61919;-75
2022/07/11 10:04:09;;;;;;;4.10;0.90;;;;;;;20.80;47.50;99023.03;105197;1271;75171;-74
2022/07/11 10:06:37;;;;;;;3.70;1.10;;;;;;;20.80;47.66;99022.55;105224;1271;69435;-75
2022/07/11 10:09:06;;;;;;;2.70;1.00;;;;;;;20.80;48.84;99020.02;105192;1270;73491;-76
2022/07/11 10:11:32;;;;;;;2.40;0.60;;;;;;;21.15;48.26;99018.55;105377;1271;61223;-76
2022/07/11 10:14:00;;;;;;;1.90;0.70;;;;;;;21.36;46.70;99013.66;105207;1271;61183;-75
2022/07/11 10:16:52;;;;;;;2.70;0.80;;;;;;;21.48;47.62;99007.23;105084;1274;75388;-76
2022/07/11 10:19:18;;;;;;;1.60;0.70;;;;;;;21.88;46.18;99004.23;105228;1271;69293;-75
2022/07/11 10:22:03;;;;;;;2.90;1.00;;;;;;;22.17;46.71;99003.80;105190;1271;61961;-76
2022/07/11 10:24:56;;;;;;;5.10;0.80;;;;;;;22.44;46.09;99005.23;105184;1271;61339;-75
2022/07/11 10:28:00;;;;;;;3.10;0.90;;;;;;;22.49;44.50;99008.41;104529;1277;61177;-74
2022/07/11 10:30:48;;;;;;;1.90;0.80;;;;;;;22.19;43.41;99005.30;104557;1277;76225;-75
2022/07/11 10:33:15;;;;;;;3.70;0.90;;;;;;;21.73;44.77;99008.79;104679;1277;67752;-75
2022/07/11 10:35:53;;;;;;;3.90;0.80;;;;;;;21.56;45.25;99015.73;104519;1278;74460;-74
2022/07/11 10:38:20;;;;;;;2.70;0.80;;;;;;;21.34;45.19;99014.25;104542;1277;61333;-75
2022/07/11 10:40:50;;;;;;;3.60;0.90;;;;;;;21.16;45.22;99020.05;104716;1277;61294;-73
2022/07/11 10:43:35;;;;;;;1.60;0.80;;;;;;;20.83;45.68;99026.18;104541;1277;76094;-75
2022/07/11 10:46:11;;;;;;;4.00;1.00;;;;;;;20.43;46.42;99036.05;104678;1277;67415;-75
2022/07/11 10:49:09;;;;;;;1.80;0.60;;;;;;;19.98;49.09;99054.90;104662;1277;73341;-74
2022/07/11 10:51:44;;;;;;;5.80;1.20;;;;;;;19.30;54.32;99072.02;104017;1284;61368;-75
2022/07/11 10:54:42;;;;;;;2.40;1.10;;;;;;;18.42;58.53;99080.41;104097;1284;61253;-75
2022/07/11 10:57:35;;;;;;;3.20;1.00;;;;;;;17.56;63.45;99100.52;104110;1284;75345;-74
2022/07/11 11:00:11;;;;;;;2.30;0.60;;;;;;;16.84;66.35;99106.41;103988;1284;69131;-73
2022/07/11 11:03:04;;;;;;;2.70;0.80;;;;;;;16.40;69.00;99108.27;103576;1284;73241;-74
2022/07/11 11:05:52;;;;;;;3.60;0.90;;;;;;;16.04;72.77;99113.38;104607;1277;61304;-74
2022/07/11 11:08:31;;;;;;;3.70;1.60;;;;;;;15.80;74.05;99121.77;104881;1276;61190;-74
2022/07/11 11:10:59;;;;;;;2.90;1.00;;;;;;;15.61;76.46;99129.44;104807;1275;75244;-74
2022/07/11 11:13:27;;;;;;;3.20;0.80;;;;;;;15.47;77.00;99129.91;104842;1277;69230;-73
2022/07/11 11:15:58;;;;;;;2.50;0.90;;;;;;;15.47;78.18;99115.83;104850;1277;74308;-73
2022/07/11 11:18:24;;;;;;;2.70;1.00;;;;;;;15.57;78.18;99115.48;104832;1277;61479;-73
2022/07/11 11:21:02;;;;;;;1.40;0.80;;;;;;;15.78;78.45;99114.78;104778;1277;61438;-73
2022/07/11 11:23:45;;;;;;;2.50;0.80;;;;;;;16.14;78.89;99117.05;104852;1277;76187;-74
2022/07/11 11:26:15;;;;;;;2.30;1.00;;;;;;;16.57;78.30;99122.00;104826;1277;69772;-74
2022/07/11 11:29:01;;;;;;;;;;;;;;;17.00;78.19;99121.52;105022;1271;74891;-73
2022/07/11 11:31:30;;;;;;;2.70;0.90;;;;;;;17.61;78.91;99123.62;105264;1271;61256;-73
2022/07/11 11:33:57;;;;;;;2.70;1.00;;;;;;;17.99;77.00;99120.55;105251;1271;62027;-74
2022/07/11 11:36:24;;;;;;;2.20;1.00;;;;;;;18.26;75.60;99120.79;105206;1271;75722;-74
2022/07/11 11:38:51;;;;;;;4.50;1.10;;;;;;;18.64;75.57;99123.38;104986;1270;69838;-73